sensor_id;sensor_type;location;lat;lon;timestamp;pressure;altitude;pressure_sealevel;temperature;humidity
9423;BME280;65863;49.506;10.400;2023-03-03T00:02:39;98201.63;;;-2.32;79.23
9423;BME280;65863;49.506;10.400;2023-03-03T00:05:23;98188.34;;;-2.43;79.50
9423;BME280;65863;49.506;10.400;2023-03-03T00:08:08;98217.81;;;-2.25;79.47
9423;BME280;65863;49.506;10.400;2023-03-03T00:10:53;98218.75;;;-2.28;79.25
9423;BME280;65863;49.506;10.400;2023-03-03T00:13:53;98229.25;;;-1.98;79.78
9423;BME280;65863;49.506;10.400;2023-03-03T00:16:37;98204.56;;;-2.45;79.46
9423;BME280;65863;49.506;10.400;2023-03-03T00:19:22;98235.06;;;-2.24;79.50
9423;BME280;65863;49.506;10.400;2023-03-03T00:22:14;98211.28;;;-2.36;79.18
9423;BME280;65863;49.506;10.400;2023-03-03T00:25:30;98238.28;;;-2.26;79.04
9423;BME280;65863;49.506;10.400;2023-03-03T00:31:16;98217.56;;;-2.64;79.08
9423;BME280;65863;49.506;10.400;2023-03-03T00:37:00;98222.13;;;-2.79;79.00
9423;BME280;65863;49.506;10.400;2023-03-03T00:39:44;98205.16;;;-2.96;79.40
9423;BME280;65863;49.506;10.400;2023-03-03T00:42:28;98256.47;;;-2.47;79.41
9423;BME280;65863;49.506;10.400;2023-03-03T00:45:22;98219.22;;;-2.75;79.89
9423;BME280;65863;49.506;10.400;2023-03-03T00:48:29;98228.53;;;-2.73;79.91
9423;BME280;65863;49.506;10.400;2023-03-03T00:51:29;98243.34;;;-2.52;80.32
9423;BME280;65863;49.506;10.400;2023-03-03T00:54:14;98231.16;;;-2.69;80.41
9423;BME280;65863;49.506;10.400;2023-03-03T00:56:58;98194.78;;;-2.92;80.56
9423;BME280;65863;49.506;10.400;2023-03-03T00:59:42;98218.59;;;-2.80;80.82
9423;BME280;65863;49.506;10.400;2023-03-03T01:02:26;98238.00;;;-2.74;80.52
9423;BME280;65863;49.506;10.400;2023-03-03T01:05:16;98223.47;;;-2.84;80.91
9423;BME280;65863;49.506;10.400;2023-03-03T01:08:01;98230.81;;;-2.71;80.82
9423;BME280;65863;49.506;10.400;2023-03-03T01:10:49;98242.59;;;-2.62;81.31
9423;BME280;65863;49.506;10.400;2023-03-03T01:13:35;98197.69;;;-2.96;81.27
9423;BME280;65863;49.506;10.400;2023-03-03T01:16:20;98237.06;;;-2.71;81.37
9423;BME280;65863;49.506;10.400;2023-03-03T01:19:04;98194.75;;;-3.11;81.75
9423;BME280;65863;49.506;10.400;2023-03-03T01:21:48;98192.91;;;-3.23;81.75
9423;BME280;65863;49.506;10.400;2023-03-03T01:24:32;98222.38;;;-3.05;81.60
9423;BME280;65863;49.506;10.400;2023-03-03T01:27:16;98239.97;;;-2.84;82.02
9423;BME280;65863;49.506;10.400;2023-03-03T01:30:02;98243.34;;;-2.80;81.79
9423;BME280;65863;49.506;10.400;2023-03-03T01:32:46;98204.25;;;-2.93;82.27
9423;BME280;65863;49.506;10.400;2023-03-03T01:35:30;98220.28;;;-2.91;82.17
9423;BME280;65863;49.506;10.400;2023-03-03T01:38:14;98241.50;;;-2.83;81.95
9423;BME280;65863;49.506;10.400;2023-03-03T01:40:59;98213.50;;;-3.18;81.88
9423;BME280;65863;49.506;10.400;2023-03-03T01:43:45;98244.09;;;-2.98;81.84
9423;BME280;65863;49.506;10.400;2023-03-03T01:49:26;98226.28;;;-3.43;81.84
9423;BME280;65863;49.506;10.400;2023-03-03T01:52:25;98207.59;;;-3.57;81.89
9423;BME280;65863;49.506;10.400;2023-03-03T01:55:25;98231.91;;;-3.47;81.67
9423;BME280;65863;49.506;10.400;2023-03-03T01:58:18;98218.72;;;-3.61;81.80
9423;BME280;65863;49.506;10.400;2023-03-03T02:01:15;98227.69;;;-3.70;82.12
9423;BME280;65863;49.506;10.400;2023-03-03T02:03:59;98183.31;;;-4.09;81.99
9423;BME280;65863;49.506;10.400;2023-03-03T02:06:47;98204.63;;;-3.82;82.54
9423;BME280;65863;49.506;10.400;2023-03-03T02:09:44;98235.16;;;-3.70;82.54
9423;BME280;65863;49.506;10.400;2023-03-03T02:13:04;98224.97;;;-3.60;82.63
9423;BME280;65863;49.506;10.400;2023-03-03T02:15:48;98196.81;;;-3.92;82.63
9423;BME280;65863;49.506;10.400;2023-03-03T02:18:32;98225.81;;;-3.82;82.54
9423;BME280;65863;49.506;10.400;2023-03-03T02:21:19;98223.53;;;-3.84;82.54
9423;BME280;65863;49.506;10.400;2023-03-03T02:24:19;98212.38;;;-3.89;82.62
9423;BME280;65863;49.506;10.400;2023-03-03T02:27:07;98172.44;;;-4.22;82.18
9423;BME280;65863;49.506;10.400;2023-03-03T02:29:52;98204.69;;;-4.04;82.09
9423;BME280;65863;49.506;10.400;2023-03-03T02:32:35;98207.25;;;-4.09;82.40
9423;BME280;65863;49.506;10.400;2023-03-03T02:35:40;98209.09;;;-3.97;82.55
9423;BME280;65863;49.506;10.400;2023-03-03T02:44:44;98203.78;;;-4.01;82.74
9423;BME280;65863;49.506;10.400;2023-03-03T02:47:28;98208.16;;;-4.12;82.59
9423;BME280;65863;49.506;10.400;2023-03-03T02:50:12;98188.25;;;-4.48;82.66
9423;BME280;65863;49.506;10.400;2023-03-03T02:52:56;98183.28;;;-4.40;82.70
9423;BME280;65863;49.506;10.400;2023-03-03T02:55:40;98189.41;;;-4.36;82.27
9423;BME280;65863;49.506;10.400;2023-03-03T02:58:24;98234.41;;;-4.24;82.64
9423;BME280;65863;49.506;10.400;2023-03-03T03:01:09;98212.16;;;-4.48;83.07
9423;BME280;65863;49.506;10.400;2023-03-03T03:03:54;98223.22;;;-4.39;82.85
9423;BME280;65863;49.506;10.400;2023-03-03T03:06:40;98219.19;;;-4.47;82.99
9423;BME280;65863;49.506;10.400;2023-03-03T03:09:25;98212.50;;;-4.46;82.88
9423;BME280;65863;49.506;10.400;2023-03-03T03:12:11;98207.13;;;-4.50;83.32
9423;BME280;65863;49.506;10.400;2023-03-03T03:14:55;98217.38;;;-4.41;83.33
9423;BME280;65863;49.506;10.400;2023-03-03T03:17:40;98248.56;;;-4.26;82.93
9423;BME280;65863;49.506;10.400;2023-03-03T03:20:24;98205.84;;;-4.58;82.77
9423;BME280;65863;49.506;10.400;2023-03-03T03:23:08;98221.13;;;-4.70;82.95
9423;BME280;65863;49.506;10.400;2023-03-03T03:25:53;98237.72;;;-4.52;82.94
9423;BME280;65863;49.506;10.400;2023-03-03T03:28:42;98233.78;;;-4.51;83.30
9423;BME280;65863;49.506;10.400;2023-03-03T03:31:27;98251.19;;;-4.44;83.56
9423;BME280;65863;49.506;10.400;2023-03-03T03:34:11;98213.81;;;-4.73;83.42
9423;BME280;65863;49.506;10.400;2023-03-03T03:36:54;98240.56;;;-4.55;83.33
9423;BME280;65863;49.506;10.400;2023-03-03T03:39:41;98223.06;;;-4.58;83.66
9423;BME280;65863;49.506;10.400;2023-03-03T03:42:24;98222.75;;;-4.60;83.80
9423;BME280;65863;49.506;10.400;2023-03-03T03:45:09;98210.44;;;-4.77;83.49
9423;BME280;65863;49.506;10.400;2023-03-03T03:47:54;98213.16;;;-4.77;84.03
9423;BME280;65863;49.506;10.400;2023-03-03T03:50:38;98222.03;;;-4.73;83.88
9423;BME280;65863;49.506;10.400;2023-03-03T03:53:23;98201.78;;;-4.76;83.86
9423;BME280;65863;49.506;10.400;2023-03-03T03:56:07;98242.56;;;-4.56;84.08
9423;BME280;65863;49.506;10.400;2023-03-03T03:58:50;98238.47;;;-4.73;83.97
9423;BME280;65863;49.506;10.400;2023-03-03T04:01:34;98205.56;;;-4.95;83.97
9423;BME280;65863;49.506;10.400;2023-03-03T04:04:18;98249.09;;;-4.75;83.79
9423;BME280;65863;49.506;10.400;2023-03-03T04:07:02;98227.66;;;-4.90;83.81
9423;BME280;65863;49.506;10.400;2023-03-03T04:09:47;98231.41;;;-4.96;84.31
9423;BME280;65863;49.506;10.400;2023-03-03T04:12:31;98239.34;;;-4.76;84.20
9423;BME280;65863;49.506;10.400;2023-03-03T04:15:22;98222.84;;;-4.86;84.28
9423;BME280;65863;49.506;10.400;2023-03-03T04:18:06;98225.44;;;-4.82;84.14
9423;BME280;65863;49.506;10.400;2023-03-03T04:20:50;98229.66;;;-4.90;83.74
9423;BME280;65863;49.506;10.400;2023-03-03T04:23:35;98216.00;;;-5.03;84.11
9423;BME280;65863;49.506;10.400;2023-03-03T04:26:19;98227.50;;;-5.08;83.95
9423;BME280;65863;49.506;10.400;2023-03-03T04:29:05;98227.69;;;-5.03;83.88
9423;BME280;65863;49.506;10.400;2023-03-03T04:31:50;98230.00;;;-5.01;83.94
9423;BME280;65863;49.506;10.400;2023-03-03T04:34:35;98245.44;;;-4.94;83.84
9423;BME280;65863;49.506;10.400;2023-03-03T04:37:19;98242.81;;;-4.98;83.93
9423;BME280;65863;49.506;10.400;2023-03-03T04:40:05;98239.84;;;-5.04;84.12
9423;BME280;65863;49.506;10.400;2023-03-03T04:42:50;98232.00;;;-5.14;84.50
9423;BME280;65863;49.506;10.400;2023-03-03T04:45:35;98269.00;;;-4.97;84.69
9423;BME280;65863;49.506;10.400;2023-03-03T04:48:20;98245.91;;;-5.09;84.51
9423;BME280;65863;49.506;10.400;2023-03-03T04:51:04;98265.47;;;-4.85;84.73
9423;BME280;65863;49.506;10.400;2023-03-03T04:53:51;98230.91;;;-5.17;84.86
9423;BME280;65863;49.506;10.400;2023-03-03T04:56:36;98283.00;;;-5.08;84.70
9423;BME280;65863;49.506;10.400;2023-03-03T04:59:20;98255.09;;;-5.15;84.78
9423;BME280;65863;49.506;10.400;2023-03-03T05:02:03;98270.75;;;-5.03;84.50
9423;BME280;65863;49.506;10.400;2023-03-03T05:04:48;98236.50;;;-5.33;84.83
9423;BME280;65863;49.506;10.400;2023-03-03T05:07:32;98266.38;;;-5.13;85.02
9423;BME280;65863;49.506;10.400;2023-03-03T05:10:16;98260.38;;;-5.34;85.20
9423;BME280;65863;49.506;10.400;2023-03-03T05:13:00;98273.94;;;-5.30;84.85
9423;BME280;65863;49.506;10.400;2023-03-03T05:15:52;98235.66;;;-5.56;85.01
9423;BME280;65863;49.506;10.400;2023-03-03T05:18:38;98253.38;;;-5.48;85.28
9423;BME280;65863;49.506;10.400;2023-03-03T05:21:22;98288.19;;;-5.36;85.43
9423;BME280;65863;49.506;10.400;2023-03-03T05:24:06;98241.78;;;-5.78;85.24
9423;BME280;65863;49.506;10.400;2023-03-03T05:26:50;98264.66;;;-5.59;85.35
9423;BME280;65863;49.506;10.400;2023-03-03T05:29:34;98248.44;;;-5.66;85.71
9423;BME280;65863;49.506;10.400;2023-03-03T05:32:18;98267.72;;;-5.69;85.29
9423;BME280;65863;49.506;10.400;2023-03-03T05:35:03;98289.38;;;-5.62;85.11
9423;BME280;65863;49.506;10.400;2023-03-03T05:37:47;98285.25;;;-5.67;85.64
9423;BME280;65863;49.506;10.400;2023-03-03T05:40:32;98286.75;;;-5.66;86.05
9423;BME280;65863;49.506;10.400;2023-03-03T05:43:17;98294.53;;;-5.64;85.66
9423;BME280;65863;49.506;10.400;2023-03-03T05:46:01;98267.06;;;-5.74;85.99
9423;BME280;65863;49.506;10.400;2023-03-03T05:48:45;98266.28;;;-5.74;85.81
9423;BME280;65863;49.506;10.400;2023-03-03T05:51:29;98279.75;;;-5.67;85.85
9423;BME280;65863;49.506;10.400;2023-03-03T05:54:13;98267.28;;;-5.68;86.06
9423;BME280;65863;49.506;10.400;2023-03-03T05:56:57;98309.31;;;-5.36;86.19
9423;BME280;65863;49.506;10.400;2023-03-03T05:59:41;98264.09;;;-5.79;85.72
9423;BME280;65863;49.506;10.400;2023-03-03T06:02:25;98261.22;;;-5.89;85.77
9423;BME280;65863;49.506;10.400;2023-03-03T06:05:10;98289.16;;;-5.81;85.57
9423;BME280;65863;49.506;10.400;2023-03-03T06:07:54;98293.63;;;-5.87;85.85
9423;BME280;65863;49.506;10.400;2023-03-03T06:10:39;98317.41;;;-5.71;85.70
9423;BME280;65863;49.506;10.400;2023-03-03T06:13:25;98295.50;;;-5.84;85.71
9423;BME280;65863;49.506;10.400;2023-03-03T06:16:09;98306.09;;;-5.73;86.13
9423;BME280;65863;49.506;10.400;2023-03-03T06:18:53;98291.97;;;-5.84;85.89
9423;BME280;65863;49.506;10.400;2023-03-03T06:21:37;98295.72;;;-5.78;86.13
9423;BME280;65863;49.506;10.400;2023-03-03T06:24:22;98296.41;;;-5.61;85.69
9423;BME280;65863;49.506;10.400;2023-03-03T06:27:08;98301.88;;;-5.48;85.98
9423;BME280;65863;49.506;10.400;2023-03-03T06:29:53;98318.84;;;-5.28;85.97
9423;BME280;65863;49.506;10.400;2023-03-03T06:32:37;98328.91;;;-5.12;86.05
9423;BME280;65863;49.506;10.400;2023-03-03T06:35:21;98339.44;;;-4.97;86.02
9423;BME280;65863;49.506;10.400;2023-03-03T06:38:05;98323.19;;;-5.05;85.79
9423;BME280;65863;49.506;10.400;2023-03-03T06:40:49;98295.53;;;-5.20;85.85
9423;BME280;65863;49.506;10.400;2023-03-03T06:43:41;98310.28;;;-5.04;85.89
9423;BME280;65863;49.506;10.400;2023-03-03T06:46:26;98353.06;;;-4.59;85.74
9423;BME280;65863;49.506;10.400;2023-03-03T06:49:10;98323.59;;;-4.68;85.86
9423;BME280;65863;49.506;10.400;2023-03-03T06:52:26;98368.34;;;-4.36;86.02
9423;BME280;65863;49.506;10.400;2023-03-03T06:55:14;98338.44;;;-4.43;85.77
9423;BME280;65863;49.506;10.400;2023-03-03T06:58:01;98357.13;;;-4.28;85.99
9423;BME280;65863;49.506;10.400;2023-03-03T07:00:55;98380.72;;;-3.96;86.34
9423;BME280;65863;49.506;10.400;2023-03-03T07:03:39;98348.41;;;-4.14;86.05
9423;BME280;65863;49.506;10.400;2023-03-03T07:06:25;98366.94;;;-3.83;86.03
9423;BME280;65863;49.506;10.400;2023-03-03T07:09:22;98351.00;;;-3.75;86.07
9423;BME280;65863;49.506;10.400;2023-03-03T07:12:14;98335.94;;;-3.71;86.19
9423;BME280;65863;49.506;10.400;2023-03-03T07:15:34;98391.00;;;-3.43;86.09
9423;BME280;65863;49.506;10.400;2023-03-03T07:18:45;98388.16;;;-3.30;85.75
9423;BME280;65863;49.506;10.400;2023-03-03T07:21:36;98375.09;;;-3.17;85.73
9423;BME280;65863;49.506;10.400;2023-03-03T07:24:27;98348.63;;;-3.33;85.54
9423;BME280;65863;49.506;10.400;2023-03-03T07:30:20;98369.72;;;-2.89;85.61
9423;BME280;65863;49.506;10.400;2023-03-03T07:36:17;98364.41;;;-2.74;85.60
9423;BME280;65863;49.506;10.400;2023-03-03T07:39:35;98374.16;;;-2.14;85.29
9423;BME280;65863;49.506;10.400;2023-03-03T07:42:37;98394.31;;;-1.89;85.24
9423;BME280;65863;49.506;10.400;2023-03-03T07:45:35;98404.84;;;-1.50;85.08
9423;BME280;65863;49.506;10.400;2023-03-03T07:48:37;98394.41;;;-1.37;84.73
9423;BME280;65863;49.506;10.400;2023-03-03T07:51:37;98398.09;;;-0.88;84.25
9423;BME280;65863;49.506;10.400;2023-03-03T07:54:34;98412.25;;;-0.38;84.11
9423;BME280;65863;49.506;10.400;2023-03-03T07:57:36;98410.91;;;0.06;83.38
9423;BME280;65863;49.506;10.400;2023-03-03T08:03:15;98401.19;;;0.50;82.03
9423;BME280;65863;49.506;10.400;2023-03-03T08:06:10;98436.16;;;0.83;81.18
9423;BME280;65863;49.506;10.400;2023-03-03T08:12:00;98384.97;;;1.02;79.14
9423;BME280;65863;49.506;10.400;2023-03-03T08:14:55;98388.97;;;1.52;78.11
9423;BME280;65863;49.506;10.400;2023-03-03T08:17:41;98422.22;;;1.93;76.70
9423;BME280;65863;49.506;10.400;2023-03-03T08:20:38;98428.56;;;1.79;75.19
9423;BME280;65863;49.506;10.400;2023-03-03T08:23:24;98368.00;;;1.30;74.23
9423;BME280;65863;49.506;10.400;2023-03-03T08:26:09;98437.22;;;1.51;73.37
9423;BME280;65863;49.506;10.400;2023-03-03T08:28:55;98421.34;;;1.66;72.88
9423;BME280;65863;49.506;10.400;2023-03-03T08:31:39;98417.88;;;1.71;72.56
9423;BME280;65863;49.506;10.400;2023-03-03T08:34:23;98401.19;;;2.28;72.21
9423;BME280;65863;49.506;10.400;2023-03-03T08:37:07;98402.75;;;2.81;71.66
9423;BME280;65863;49.506;10.400;2023-03-03T08:39:51;98405.63;;;2.66;70.70
9423;BME280;65863;49.506;10.400;2023-03-03T08:42:35;98361.72;;;2.59;69.92
9423;BME280;65863;49.506;10.400;2023-03-03T08:45:20;98417.41;;;2.87;69.57
9423;BME280;65863;49.506;10.400;2023-03-03T08:48:04;98426.81;;;2.69;69.19
9423;BME280;65863;49.506;10.400;2023-03-03T08:50:48;98403.84;;;2.37;69.04
9423;BME280;65863;49.506;10.400;2023-03-03T08:53:32;98446.72;;;2.94;69.05
9423;BME280;65863;49.506;10.400;2023-03-03T08:56:19;98435.78;;;3.11;69.54
9423;BME280;65863;49.506;10.400;2023-03-03T08:59:03;98445.59;;;3.06;69.18
9423;BME280;65863;49.506;10.400;2023-03-03T09:01:47;98420.78;;;2.97;69.11
9423;BME280;65863;49.506;10.400;2023-03-03T09:04:32;98404.63;;;2.96;68.99
9423;BME280;65863;49.506;10.400;2023-03-03T09:07:16;98426.75;;;3.54;69.44
9423;BME280;65863;49.506;10.400;2023-03-03T09:10:00;98428.44;;;3.83;69.43
9423;BME280;65863;49.506;10.400;2023-03-03T09:12:46;98416.13;;;4.01;69.20
9423;BME280;65863;49.506;10.400;2023-03-03T09:15:36;98419.00;;;4.24;68.82
9423;BME280;65863;49.506;10.400;2023-03-03T09:18:34;98441.34;;;4.58;68.23
9423;BME280;65863;49.506;10.400;2023-03-03T09:21:25;98429.97;;;4.50;67.57
9423;BME280;65863;49.506;10.400;2023-03-03T09:24:24;98405.97;;;4.53;67.84
9423;BME280;65863;49.506;10.400;2023-03-03T09:27:18;98436.63;;;4.98;66.85
9423;BME280;65863;49.506;10.400;2023-03-03T09:33:41;98418.41;;;4.86;65.85
9423;BME280;65863;49.506;10.400;2023-03-03T09:36:44;98426.25;;;4.93;65.33
9423;BME280;65863;49.506;10.400;2023-03-03T09:39:29;98425.72;;;4.77;65.19
9423;BME280;65863;49.506;10.400;2023-03-03T09:42:26;98453.06;;;5.07;64.44
9423;BME280;65863;49.506;10.400;2023-03-03T09:48:43;98457.16;;;5.17;65.10
9423;BME280;65863;49.506;10.400;2023-03-03T09:54:42;98455.34;;;5.54;65.54
9423;BME280;65863;49.506;10.400;2023-03-03T10:04:06;98445.78;;;6.42;63.24
9423;BME280;65863;49.506;10.400;2023-03-03T10:07:21;98426.38;;;6.14;62.42
9423;BME280;65863;49.506;10.400;2023-03-03T10:13:32;98457.81;;;6.62;61.76
9423;BME280;65863;49.506;10.400;2023-03-03T10:16:42;98463.41;;;6.62;60.58
9423;BME280;65863;49.506;10.400;2023-03-03T10:19:47;98460.63;;;6.62;61.26
9423;BME280;65863;49.506;10.400;2023-03-03T10:23:02;98436.06;;;6.54;60.44
9423;BME280;65863;49.506;10.400;2023-03-03T10:25:52;98462.72;;;6.50;60.60
9423;BME280;65863;49.506;10.400;2023-03-03T10:41:27;98443.88;;;7.89;59.94
9423;BME280;65863;49.506;10.400;2023-03-03T10:56:33;98452.03;;;8.12;58.42
9423;BME280;65863;49.506;10.400;2023-03-03T10:59:35;98432.19;;;7.90;57.80
9423;BME280;65863;49.506;10.400;2023-03-03T11:02:29;98454.78;;;7.92;57.02
9423;BME280;65863;49.506;10.400;2023-03-03T11:05:41;98418.38;;;7.49;56.73
9423;BME280;65863;49.506;10.400;2023-03-03T11:08:31;98449.53;;;7.58;56.62
9423;BME280;65863;49.506;10.400;2023-03-03T11:11:40;98408.03;;;7.68;56.98
9423;BME280;65863;49.506;10.400;2023-03-03T11:14:31;98406.78;;;7.64;56.39
9423;BME280;65863;49.506;10.400;2023-03-03T11:17:32;98444.91;;;8.54;56.34
9423;BME280;65863;49.506;10.400;2023-03-03T11:20:40;98445.16;;;8.13;55.05
9423;BME280;65863;49.506;10.400;2023-03-03T11:36:08;98431.56;;;8.22;54.77
9423;BME280;65863;49.506;10.400;2023-03-03T11:38:57;98426.09;;;8.74;55.22
9423;BME280;65863;49.506;10.400;2023-03-03T11:42:02;98425.78;;;9.42;54.05
9423;BME280;65863;49.506;10.400;2023-03-03T11:45:15;98415.94;;;8.90;53.42
9423;BME280;65863;49.506;10.400;2023-03-03T11:48:11;98422.09;;;8.69;52.97
9423;BME280;65863;49.506;10.400;2023-03-03T11:51:02;98382.16;;;8.50;53.27
9423;BME280;65863;49.506;10.400;2023-03-03T11:53:53;98423.78;;;8.91;52.89
9423;BME280;65863;49.506;10.400;2023-03-03T11:56:42;98417.81;;;9.01;52.66
9423;BME280;65863;49.506;10.400;2023-03-03T11:59:43;98396.19;;;8.82;52.41
9423;BME280;65863;49.506;10.400;2023-03-03T12:02:54;98400.59;;;8.77;52.19
9423;BME280;65863;49.506;10.400;2023-03-03T12:05:49;98368.84;;;8.75;52.37
9423;BME280;65863;49.506;10.400;2023-03-03T12:14:50;98387.53;;;9.45;49.53
9423;BME280;65863;49.506;10.400;2023-03-03T12:17:51;98410.44;;;10.03;49.47
9423;BME280;65863;49.506;10.400;2023-03-03T12:21:13;98399.09;;;9.68;48.89
9423;BME280;65863;49.506;10.400;2023-03-03T12:24:11;98398.78;;;9.72;49.33
9423;BME280;65863;49.506;10.400;2023-03-03T12:27:33;98386.16;;;9.78;48.69
9423;BME280;65863;49.506;10.400;2023-03-03T12:30:32;98385.41;;;9.91;47.81
9423;BME280;65863;49.506;10.400;2023-03-03T12:39:44;98366.00;;;10.07;47.09
9423;BME280;65863;49.506;10.400;2023-03-03T12:43:02;98353.44;;;10.21;46.67
9423;BME280;65863;49.506;10.400;2023-03-03T12:45:55;98362.53;;;10.00;46.27
9423;BME280;65863;49.506;10.400;2023-03-03T12:48:44;98339.56;;;9.89;45.88
9423;BME280;65863;49.506;10.400;2023-03-03T13:01:15;98348.38;;;10.67;45.27
9423;BME280;65863;49.506;10.400;2023-03-03T13:04:20;98343.03;;;10.56;44.58
9423;BME280;65863;49.506;10.400;2023-03-03T13:07:19;98333.47;;;10.38;45.18
9423;BME280;65863;49.506;10.400;2023-03-03T13:10:32;98319.63;;;10.40;45.07
9423;BME280;65863;49.506;10.400;2023-03-03T13:13:59;98343.78;;;10.99;44.96
9423;BME280;65863;49.506;10.400;2023-03-03T13:19:48;98338.72;;;10.97;44.75
9423;BME280;65863;49.506;10.400;2023-03-03T13:29:08;98341.94;;;10.80;43.58
9423;BME280;65863;49.506;10.400;2023-03-03T13:32:04;98335.34;;;10.57;43.87
9423;BME280;65863;49.506;10.400;2023-03-03T13:35:07;98305.72;;;10.34;43.94
9423;BME280;65863;49.506;10.400;2023-03-03T13:37:54;98334.47;;;11.04;44.37
9423;BME280;65863;49.506;10.400;2023-03-03T13:40:42;98290.41;;;11.20;43.70
9423;BME280;65863;49.506;10.400;2023-03-03T13:43:37;98328.56;;;11.73;42.92
9423;BME280;65863;49.506;10.400;2023-03-03T13:46:42;98331.31;;;11.08;42.59
9423;BME280;65863;49.506;10.400;2023-03-03T13:56:00;98295.22;;;10.91;43.69
9423;BME280;65863;49.506;10.400;2023-03-03T13:59:01;98290.41;;;11.20;43.41
9423;BME280;65863;49.506;10.400;2023-03-03T14:04:52;98297.88;;;11.83;43.06
9423;BME280;65863;49.506;10.400;2023-03-03T14:07:43;98285.72;;;11.88;42.96
9423;BME280;65863;49.506;10.400;2023-03-03T14:10:34;98297.06;;;11.67;42.71
9423;BME280;65863;49.506;10.400;2023-03-03T14:13:32;98267.09;;;11.12;42.92
9423;BME280;65863;49.506;10.400;2023-03-03T14:16:38;98302.25;;;11.05;43.86
9423;BME280;65863;49.506;10.400;2023-03-03T14:22:40;98263.97;;;10.94;44.60
9423;BME280;65863;49.506;10.400;2023-03-03T14:28:45;98261.25;;;10.39;45.65
9423;BME280;65863;49.506;10.400;2023-03-03T14:31:40;98261.13;;;10.44;46.32
9423;BME280;65863;49.506;10.400;2023-03-03T14:34:34;98292.47;;;10.77;46.60
9423;BME280;65863;49.506;10.400;2023-03-03T14:37:26;98295.59;;;11.16;46.31
9423;BME280;65863;49.506;10.400;2023-03-03T14:43:01;98292.44;;;11.19;45.70
9423;BME280;65863;49.506;10.400;2023-03-03T14:45:46;98230.53;;;10.54;45.42
9423;BME280;65863;49.506;10.400;2023-03-03T14:48:30;98274.59;;;10.67;45.60
9423;BME280;65863;49.506;10.400;2023-03-03T14:51:25;98274.00;;;10.61;45.84
9423;BME280;65863;49.506;10.400;2023-03-03T14:54:25;98246.56;;;10.32;46.49
9423;BME280;65863;49.506;10.400;2023-03-03T15:03:26;98257.28;;;9.86;48.36
9423;BME280;65863;49.506;10.400;2023-03-03T15:06:12;98197.00;;;9.45;48.50
9423;BME280;65863;49.506;10.400;2023-03-03T15:09:32;98286.13;;;10.21;48.60
9423;BME280;65863;49.506;10.400;2023-03-03T15:12:32;98291.22;;;10.09;48.27
9423;BME280;65863;49.506;10.400;2023-03-03T15:15:21;98248.06;;;9.64;47.90
9423;BME280;65863;49.506;10.400;2023-03-03T15:18:09;98235.13;;;9.48;47.98
9423;BME280;65863;49.506;10.400;2023-03-03T15:21:12;98287.31;;;9.64;48.40
9423;BME280;65863;49.506;10.400;2023-03-03T15:30:46;98287.84;;;9.63;48.77
9423;BME280;65863;49.506;10.400;2023-03-03T15:33:40;98286.13;;;9.60;48.73
9423;BME280;65863;49.506;10.400;2023-03-03T15:36:47;98267.50;;;9.36;48.88
9423;BME280;65863;49.506;10.400;2023-03-03T15:43:10;98287.53;;;9.26;49.50
9423;BME280;65863;49.506;10.400;2023-03-03T15:46:13;98282.56;;;9.33;49.54
9423;BME280;65863;49.506;10.400;2023-03-03T15:50:03;98284.81;;;9.34;49.73
9423;BME280;65863;49.506;10.400;2023-03-03T15:58:48;98280.66;;;8.82;50.27
9423;BME280;65863;49.506;10.400;2023-03-03T16:01:59;98288.94;;;8.74;50.58
9423;BME280;65863;49.506;10.400;2023-03-03T16:05:12;98274.16;;;8.60;51.00
9423;BME280;65863;49.506;10.400;2023-03-03T16:08:03;98291.47;;;8.58;50.56
9423;BME280;65863;49.506;10.400;2023-03-03T16:11:19;98289.88;;;8.44;50.99
9423;BME280;65863;49.506;10.400;2023-03-03T16:14:26;98298.00;;;8.28;51.05
9423;BME280;65863;49.506;10.400;2023-03-03T16:20:31;98297.16;;;8.15;51.37
9423;BME280;65863;49.506;10.400;2023-03-03T16:23:19;98293.41;;;7.93;52.12
9423;BME280;65863;49.506;10.400;2023-03-03T16:32:07;98306.78;;;7.56;52.86
9423;BME280;65863;49.506;10.400;2023-03-03T16:38:00;98301.16;;;7.13;53.26
9423;BME280;65863;49.506;10.400;2023-03-03T16:40:49;98287.94;;;6.88;53.79
9423;BME280;65863;49.506;10.400;2023-03-03T16:43:50;98293.56;;;6.83;53.71
9423;BME280;65863;49.506;10.400;2023-03-03T16:46:40;98332.84;;;6.91;54.54
9423;BME280;65863;49.506;10.400;2023-03-03T16:49:54;98320.59;;;6.63;54.51
9423;BME280;65863;49.506;10.400;2023-03-03T16:52:47;98319.16;;;6.57;54.56
9423;BME280;65863;49.506;10.400;2023-03-03T16:55:43;98320.31;;;6.36;54.58
9423;BME280;65863;49.506;10.400;2023-03-03T16:58:50;98339.03;;;6.42;54.60
9423;BME280;65863;49.506;10.400;2023-03-03T17:01:54;98323.50;;;6.10;54.70
9423;BME280;65863;49.506;10.400;2023-03-03T17:16:59;98370.44;;;5.83;54.88
9423;BME280;65863;49.506;10.400;2023-03-03T17:24:00;98377.84;;;5.64;55.51
9423;BME280;65863;49.506;10.400;2023-03-03T17:26:48;98373.84;;;5.42;55.37
9423;BME280;65863;49.506;10.400;2023-03-03T17:32:49;98377.41;;;4.80;56.35
9423;BME280;65863;49.506;10.400;2023-03-03T17:35:53;98357.16;;;4.35;56.61
9423;BME280;65863;49.506;10.400;2023-03-03T17:45:07;98397.13;;;3.83;58.68
9423;BME280;65863;49.506;10.400;2023-03-03T17:56:55;98407.50;;;3.07;60.62
9423;BME280;65863;49.506;10.400;2023-03-03T18:06:16;98413.94;;;2.66;62.11
9423;BME280;65863;49.506;10.400;2023-03-03T18:19:26;98425.53;;;2.18;64.23
9423;BME280;65863;49.506;10.400;2023-03-03T18:22:28;98406.34;;;1.94;64.60
9423;BME280;65863;49.506;10.400;2023-03-03T18:30:58;98427.34;;;2.00;66.29
9423;BME280;65863;49.506;10.400;2023-03-03T18:33:58;98415.53;;;2.05;66.47
9423;BME280;65863;49.506;10.400;2023-03-03T18:36:55;98361.84;;;1.56;66.84
9423;BME280;65863;49.506;10.400;2023-03-03T18:39:47;98415.56;;;1.85;67.06
9423;BME280;65863;49.506;10.400;2023-03-03T18:42:42;98415.41;;;1.74;67.21
9423;BME280;65863;49.506;10.400;2023-03-03T18:48:13;98415.91;;;1.36;67.29
9423;BME280;65863;49.506;10.400;2023-03-03T18:50:57;98421.63;;;1.33;68.04
9423;BME280;65863;49.506;10.400;2023-03-03T18:53:59;98428.47;;;1.37;68.75
9423;BME280;65863;49.506;10.400;2023-03-03T18:59:48;98449.88;;;1.22;69.46
9423;BME280;65863;49.506;10.400;2023-03-03T19:02:36;98440.63;;;1.10;69.63
9423;BME280;65863;49.506;10.400;2023-03-03T19:05:47;98427.28;;;0.79;69.47
9423;BME280;65863;49.506;10.400;2023-03-03T19:08:53;98444.91;;;0.66;69.62